Serhiy Makarenko

Scout - Shakhtar
17 Jul 2027
Samstag
Verarbeitung

Persönlichkeit

Anpassungsfähigkeit (1) Ehrgeiz (6) Kontroverse (2) Loyalität (14) Druck (3) Professionalität (14) Fairness (5) Temperament (19)

Profil

Trainerstil Demokratisch
Lizenz Kontinentale A
Entschlossenheit 7
Menschenführung 10
Motivation 12
Disziplin 9
Arbeitszufriedenheit
100%
Ermüdung
0%
Rolle Scout
Gehalt 49.6K p/W
Vertrag 14.03.2028

Leistung

Verhalten Gut
Trainingseffektivität
58%
Spielerentwicklung
60%
Verletzungsprävention
70%
Taktische Umsetzung
75%

Letzte Ereignisse

Nahm an einer Scouting-Besprechung teil jetzt
Empfahl ein Transferziel jetzt
Empfahl ein Transferziel jetzt
Empfahl ein Transferziel jetzt
Spieler begutachtet 7T her
Spieler begutachtet 7T her
Spieler begutachtet 7T her
Spieler begutachtet 7T her

Aktuell beobachtet

102
Spieler Verein Status Fähigkeit Vertrauen Beobachtet Zuletzt beobachtet Letzte Stimme
Ramón Terrats Getafe Bericht bereit 147 / 146 75% 13 14.07.2027 Klar befürworten
Callum O'Hare Sheffield United Aktiv 137 / 137 40% 1 14.07.2027 -
Erik Lira Cruz Azul Verloren 148 / 138 40% 3 10.07.2027 -
Oscar Al-Taawoun Aktiv 147 / 151 75% 6 10.07.2027 Klar befürworten
Jack Clarke Ipswich Town Aktiv 132 / 140 40% 1 10.07.2027 -
Jay Robinson Southampton Aktiv 129 / 123 40% 1 06.07.2027 -
Oleksandr Nazarenko Polissia Aktiv 121 / 117 65% 1 21.06.2027 Befürworten
Oleksii Hutsuliak Polissia Verloren 134 / 126 65% 1 17.06.2027 Befürworten
Artem Slesar Zorya Verloren 108 / 115 65% 1 15.06.2027 -
Michael Cooper Sheffield United Aktiv 132 / 136 40% 1 15.06.2027 -
Mathías Olivera Cesena Aktiv 150 / 148 40% 8 13.06.2027 -
Emanuele Valeri Parma Aktiv 132 / 134 40% 2 13.06.2027 -
Shea Charles Southampton Aktiv 145 / 141 40% 7 12.06.2027 -
Álex Valle Como Aktiv 147 / 143 40% 6 12.06.2027 -
Japhet Tanganga Sheffield United Aktiv 134 / 128 40% 3 10.06.2027 -
Imrân Louza Watford Aktiv 137 / 130 40% 5 10.06.2027 -
Nobel Mendy Hull City Aktiv 139 / 137 40% 2 09.06.2027 -
Andrea Carboni Monza Aktiv 130 / 131 40% 2 08.06.2027 -
Gustavo Hamer Sheffield United Aktiv 136 / 134 40% 5 07.06.2027 -
Josh Doig Sassuolo Aktiv 136 / 143 40% 3 06.06.2027 -
Jacques Ekomié Wrexham Aktiv 133 / 135 40% 1 06.06.2027 -
Ilario Monterisi Frosinone Aktiv 128 / 125 40% 3 02.06.2027 -
Guille Rosas Gijón Aktiv 134 / 139 40% 2 02.06.2027 -
Isma Ruiz Córdoba Aktiv 127 / 131 40% 2 31.05.2027 -
Luke McNally Bristol City Aktiv 134 / 127 40% 2 29.05.2027 -
Adrián Bernabé Parma Aktiv 144 / 141 40% 3 28.05.2027 -
Nikola Vlašić Torino Aktiv 145 / 142 40% 1 28.05.2027 -
Saša Lukić Ipswich Town Aktiv 143 / 137 40% 4 26.05.2027 -
Emam Ashour Al Ahly Aktiv 143 / 150 40% 3 26.05.2027 -
Petar Stanić Ludogorets Aktiv 129 / 142 40% 6 25.05.2027 -
Andrea Colpani Monza Aktiv 141 / 137 40% 1 25.05.2027 -
Tim Iroegbunam Hull City Aktiv 143 / 139 40% 5 23.05.2027 -
Edoardo Bove Watford Aktiv 124 / 138 40% 5 22.05.2027 -
Stephen Eustáquio Swansea City Aktiv 129 / 138 40% 3 20.05.2027 -
Welington Southampton Aktiv 128 / 137 40% 1 18.05.2027 -
Eduard Spertsyan Al-Ahli Aktiv 143 / 146 40% 2 17.05.2027 -
Caleb Yirenkyi Coventry City Aktiv 140 / 142 40% 1 16.05.2027 -
Thierry Rendall Correia Venezia Aktiv 147 / 136 40% 2 15.05.2027 -
Sidiki Chérif Coventry City Aktiv 129 / 127 40% 1 13.05.2027 -
Tommaso Pobega Bologna Aktiv 136 / 140 40% 1 13.05.2027 -
Max Bird Birmingham Aktiv 131 / 134 40% 2 12.05.2027 -
Aleksa Terzić Frosinone Aktiv 127 / 130 40% 2 11.05.2027 -
Sebastiano Luperto Cremonese Aktiv 130 / 139 40% 2 11.05.2027 -
Toby Collyer West Bromwich Albion Aktiv 135 / 134 40% 1 11.05.2027 -
Bobby Thomas Coventry City Aktiv 135 / 129 40% 2 09.05.2027 -
Juan Brunetta Torino Aktiv 149 / 146 40% 3 01.05.2027 -
Bitello Empoli Aktiv 140 / 129 40% 2 01.05.2027 -
Ibrahim Sangaré Nottingham Forest Aktiv 155 / 148 40% 1 01.05.2027 -
Dara O'Shea Ipswich Town Aktiv 132 / 138 40% 3 30.04.2027 -
Crysencio Summerville Al-Hilal Aktiv 157 / 128 40% 1 27.04.2027 -
Callum Doyle Wrexham Aktiv 129 / 128 40% 3 25.04.2027 -
Rolando Mandragora Torino Aktiv 150 / 138 40% 2 25.04.2027 -
Sindre Walle Egeli Nottingham Forest Aktiv 130 / 132 40% 1 22.04.2027 -
Samuele Angori Pisa Aktiv 126 / 130 40% 1 19.04.2027 -
Toti Wolverhampton Aktiv 140 / 130 40% 1 19.04.2027 -
Tommaso Barbieri Cremonese Aktiv 131 / 136 40% 1 16.04.2027 -
Milan van Ewijk Coventry City Aktiv 139 / 137 40% 1 16.04.2027 -
Oscar Schwartau Norwich City Aktiv 126 / 137 40% 1 15.04.2027 -
Shea Lacey Millwall Aktiv 129 / 135 40% 1 09.04.2027 -
Nicolás Barros Schelotto Osasuna Aktiv 110 / 128 40% 1 07.04.2027 -
Joachim Andersen Fulham Aktiv 139 / 151 40% 1 04.04.2027 -
Aidan Morris Middlesbrough Aktiv 137 / 136 40% 2 03.04.2027 -
Ben Nelson Leicester City Aktiv 130 / 137 40% 1 31.03.2027 -
Morten Frendrup Genoa Aktiv 136 / 145 40% 3 30.03.2027 -
Callum Brittain Middlesbrough Aktiv 122 / 126 40% 2 29.03.2027 -
Tariq Lamptey Queens Park Rangers Aktiv 144 / 125 40% 1 23.03.2027 -
Yevhen Pidlepenets Bukovyna Aktiv 103 / 100 65% 1 26.01.2027 Befürworten
Đorđe Petrović Bournemouth Aktiv 148 / 148 40% 1 24.01.2027 -
Max Johnston Derby County Aktiv 123 / 120 40% 1 16.01.2027 -
Lucas Da Cunha Como Aktiv 138 / 153 40% 3 10.01.2027 -
Jordan Zemura Udinese Aktiv 130 / 128 40% 1 09.01.2027 -
Alessandro Buongiorno Sassuolo Aktiv 155 / 151 40% 1 28.12.2026 -
Matías Palacios Al Ain Aktiv 140 / 121 40% 2 18.12.2026 -
Marc Pubill Atlético Madrid Aktiv 145 / 151 40% 3 17.12.2026 -
Gastón Álvarez Al-Qadisiyah Aktiv 139 / 131 40% 2 17.12.2026 -
Sondre Auklend Valerenga Aktiv 115 / 134 40% 1 17.12.2026 -
Ângelo Al-Nassr Aktiv 143 / 124 40% 4 16.12.2026 -
Christos Mouzakitis Hull City Aktiv 137 / 135 40% 3 14.12.2026 -
Christos Zafeiris FC Copenhagen Aktiv 141 / 145 40% 1 14.12.2026 -
Musab Al-Juwayr Al-Qadisiyah Aktiv 133 / 125 40% 4 12.12.2026 -
Valentín Barco Chelsea Aktiv 140 / 152 40% 2 10.12.2026 -
Petar Sučić Inter Aktiv 150 / 148 40% 1 08.12.2026 -
Kaveh Azmoun Siah Jamegan Aktiv 136 / 121 40% 1 08.12.2026 -
Mohamed Simakan Al-Nassr Aktiv 145 / 152 40% 2 06.12.2026 -
Frans Krätzig Red Bull Salzburg Aktiv 131 / 131 40% 2 02.12.2026 -
Maxim De Cuyper Brighton Aktiv 146 / 138 40% 1 01.12.2026 -
Leandrinho Sharjah Aktiv 122 / 109 40% 1 01.12.2026 -
Mohamed Ali Ben Romdhane Al Ahly Aktiv 117 / 128 40% 1 01.12.2026 -
Ciro De Angelis Siah Jamegan Aktiv 119 / 140 40% 1 16.11.2026 -
Emil Breivik Molde Aktiv 119 / 122 40% 1 11.11.2026 -
Zoltan Bese Haladas Aktiv 108 / 115 40% 1 06.11.2026 -
Pedro Bicalho Qarabag Aktiv 118 / 124 40% 1 06.11.2026 -
Ehsan Beiranvand Padideh Aktiv 143 / 132 40% 1 29.10.2026 -
João Simões Sporting CP Aktiv 133 / 143 40% 1 27.10.2026 -
Dion Lopy Al-Ittihad Aktiv 121 / 129 40% 1 27.10.2026 -
Furkan Demir Rapid Wien Aktiv 116 / 119 40% 1 20.10.2026 -
Ezra Mayers West Ham United Aktiv 107 / 120 40% 1 13.10.2026 -
Daniel Kelly Derby County Aktiv 107 / 116 40% 1 02.10.2026 -
Khalid Juma Al Ahli Aktiv 135 / 144 40% 2 26.09.2026 -
Yacine Adli Al-Shabab Aktiv 146 / 124 40% 1 24.09.2026 -
Fabian Rieder FC Augsburg Aktiv 132 / 133 40% 1 07.09.2026 -
Yasin Ayari Brighton Aktiv 131 / 154 40% 1 01.08.2026 -